»·PEaware :: AAL777 KLAX-KLAS

AAL777 :: KLAX-KLAS

FLIGHT INFORMATION

Flight Status: Arrived
Operator:
American Airlines
More flights by this operator :: More flights under this callsign
Pilot: Drew L. (13237)
Aircraft: AIRBUS A321
(A321)
More flights by this aircraft type
Origin: KLAX Los Angeles Intl
United States
Destination: KLAS McCarran Intl
United States
More flights between these airports :: More routes between these airports
Route: ORCKA4 MISEN KEPEC6
File this flight plan on PilotEdge
Remarks: RMK / SIMBRIEF
Altitude:
(Current/Filed)
25,000ft
Speed:
(Current/Filed)
459kts
Departed: 02-Sep-20 04:00 PM
Arrived: 02-Sep-20 04:46 PM
Distance/Time
Traveled:
205nm/0:46
Distance/Time
To Go:
Arrived

Flight Plot

Page will automatically refresh every two minutes.

Flight plan parsing failed; only flown route is shown


Map Options




Map Legend


Flown Route
Filed Route
Departure Airport
Arrival Airport
Navaid (VOR, NDB)
Fix

Horizontal Profiles

Position Reports

Time Latitude Longitude Heading Altitude Ground
Speed
02-Sep-20 14:56 33.939619 -118.405982 322 124ft 0kts
02-Sep-20 14:57 33.939619 -118.405982 322 124ft 0kts
02-Sep-20 14:57 33.939619 -118.405982 322 124ft 0kts
02-Sep-20 14:59 33.939619 -118.405982 322 124ft 0kts
02-Sep-20 14:59 33.939619 -118.405982 322 124ft 0kts
02-Sep-20 15:00 33.939619 -118.405982 322 124ft 0kts
02-Sep-20 15:01 33.939619 -118.405982 322 124ft 0kts
02-Sep-20 15:02 33.939619 -118.405982 322 124ft 0kts
02-Sep-20 15:03 33.939619 -118.405982 322 124ft 0kts
02-Sep-20 15:04 33.939619 -118.405982 322 124ft 0kts
02-Sep-20 15:05 33.939619 -118.405982 322 124ft 0kts
02-Sep-20 15:06 33.939619 -118.405982 322 124ft 0kts
02-Sep-20 15:07 33.939619 -118.405982 322 124ft 0kts
02-Sep-20 15:08 33.939619 -118.405982 322 124ft 0kts
02-Sep-20 15:09 33.939619 -118.405982 322 124ft 0kts
02-Sep-20 15:10 33.939619 -118.405982 322 124ft 0kts
02-Sep-20 15:11 33.939619 -118.405982 322 124ft 0kts
02-Sep-20 15:12 33.939619 -118.405982 322 124ft 0kts
02-Sep-20 15:13 33.939619 -118.405982 322 124ft 0kts
02-Sep-20 15:14 33.939619 -118.405982 322 124ft 0kts
02-Sep-20 15:15 33.939619 -118.405982 322 124ft 0kts
02-Sep-20 15:16 33.939619 -118.405982 322 124ft 0kts
02-Sep-20 15:17 33.939619 -118.405982 322 124ft 0kts
02-Sep-20 15:18 33.939619 -118.405982 322 124ft 0kts
02-Sep-20 15:19 33.939619 -118.405982 322 124ft 0kts
02-Sep-20 15:20 33.939619 -118.405982 322 124ft 0kts
02-Sep-20 15:21 33.939619 -118.405982 322 124ft 0kts
02-Sep-20 15:22 33.939619 -118.405982 322 124ft 0kts
02-Sep-20 15:23 33.939619 -118.405982 322 124ft 0kts
02-Sep-20 15:24 33.939619 -118.405982 322 124ft 0kts
02-Sep-20 15:25 33.939619 -118.405982 322 124ft 0kts
02-Sep-20 15:26 33.939619 -118.405982 322 124ft 0kts
02-Sep-20 15:27 33.939619 -118.405982 322 124ft 0kts
02-Sep-20 15:28 33.939619 -118.405982 322 124ft 0kts
02-Sep-20 15:29 33.939619 -118.405982 322 124ft 0kts
02-Sep-20 15:30 33.939619 -118.405982 322 124ft 0kts
02-Sep-20 15:31 33.939619 -118.405982 322 124ft 0kts
02-Sep-20 15:32 33.939619 -118.405982 322 124ft 0kts
02-Sep-20 15:33 33.939619 -118.405982 322 124ft 0kts
02-Sep-20 15:34 33.939619 -118.405982 322 124ft 0kts
02-Sep-20 15:35 33.939619 -118.405982 322 124ft 0kts
02-Sep-20 15:36 33.939619 -118.405982 322 124ft 0kts
02-Sep-20 15:37 33.939619 -118.405982 322 124ft 0kts
02-Sep-20 15:38 33.939618 -118.405982 322 124ft 0kts
02-Sep-20 15:39 33.939251 -118.405682 359 124ft 2kts
02-Sep-20 15:40 33.938965 -118.406227 80 125ft 2kts
02-Sep-20 15:41 33.938884 -118.406940 82 127ft 2kts
02-Sep-20 15:42 33.938804 -118.407655 82 127ft 2kts
02-Sep-20 15:43 33.938791 -118.407771 82 127ft 0kts
02-Sep-20 15:44 33.938791 -118.407771 82 127ft 0kts
02-Sep-20 15:45 33.938791 -118.407771 82 127ft 0kts
02-Sep-20 15:46 33.938791 -118.407771 82 127ft 0kts
02-Sep-20 15:47 33.938605 -118.407136 166 127ft 9kts
02-Sep-20 15:48 33.938647 -118.401204 83 120ft 22kts
02-Sep-20 15:49 33.939477 -118.393116 83 107ft 24kts
02-Sep-20 15:50 33.940308 -118.384995 82 104ft 23kts
02-Sep-20 15:51 33.940724 -118.381021 83 101ft 0kts
02-Sep-20 15:52 33.940724 -118.381021 83 101ft 0kts
02-Sep-20 15:53 33.940724 -118.381021 83 101ft 0kts
02-Sep-20 15:54 33.940724 -118.381021 83 101ft 0kts
02-Sep-20 15:55 33.940724 -118.381021 83 101ft 0kts
02-Sep-20 15:56 33.940724 -118.381021 83 101ft 0kts
02-Sep-20 15:57 33.940724 -118.381021 83 101ft 0kts
02-Sep-20 15:58 33.940746 -118.380784 83 101ft 6kts
02-Sep-20 15:59 33.938117 -118.397261 263 319ft 165kts
02-Sep-20 16:00 33.931552 -118.458103 259 2989ft 220kts
02-Sep-20 16:01 33.907106 -118.535137 222 5444ft 264kts
02-Sep-20 16:02 33.845806 -118.518429 111 8463ft 277kts
02-Sep-20 16:03 33.880974 -118.447037 11 10977ft 310kts
02-Sep-20 16:04 33.957432 -118.389548 56 12416ft 365kts
02-Sep-20 16:05 34.015018 -118.286316 56 15128ft 380kts
02-Sep-20 16:06 34.075910 -118.178797 56 17604ft 395kts
02-Sep-20 16:07 34.139215 -118.067136 56 19889ft 408kts
02-Sep-20 16:08 34.205735 -117.953452 54 21934ft 420kts
02-Sep-20 16:09 34.274470 -117.837076 54 23764ft 431kts
02-Sep-20 16:10 34.344680 -117.717646 54 25001ft 438kts
02-Sep-20 16:11 34.414790 -117.597974 54 25037ft 433kts
02-Sep-20 16:12 34.484342 -117.478856 54 25056ft 433kts
02-Sep-20 16:13 34.553631 -117.359787 54 25059ft 433kts
02-Sep-20 16:14 34.622812 -117.240102 55 25059ft 432kts
02-Sep-20 16:15 34.691783 -117.120687 55 25059ft 432kts
02-Sep-20 16:16 34.761124 -117.000394 56 25041ft 439kts
02-Sep-20 16:17 34.831372 -116.878021 56 25000ft 446kts
02-Sep-20 16:18 34.902111 -116.754378 55 24981ft 446kts
02-Sep-20 16:19 34.972884 -116.630244 54 24978ft 444kts
02-Sep-20 16:20 35.043247 -116.506637 54 24983ft 442kts
02-Sep-20 16:21 35.116066 -116.386255 47 24995ft 442kts
02-Sep-20 16:22 35.201576 -116.278224 45 25002ft 442kts
02-Sep-20 16:23 35.287391 -116.170537 45 25003ft 442kts
02-Sep-20 16:24 35.372828 -116.062900 45 21917ft 441kts
02-Sep-20 16:25 35.455828 -115.958017 45 18215ft 420kts
02-Sep-20 16:26 35.534339 -115.858520 45 15127ft 394kts
02-Sep-20 16:27 35.608627 -115.764121 45 13322ft 373kts
02-Sep-20 16:28 35.674604 -115.680025 45 13049ft 312kts
02-Sep-20 16:29 35.731763 -115.606989 45 13047ft 288kts
02-Sep-20 16:30 35.802161 -115.571671 1 13049ft 285kts
02-Sep-20 16:31 35.881386 -115.567923 2 13047ft 285kts
02-Sep-20 16:32 35.959693 -115.557960 28 13034ft 285kts
02-Sep-20 16:33 35.999525 -115.473883 68 11912ft 292kts
02-Sep-20 16:34 36.027534 -115.381267 77 11011ft 270kts
02-Sep-20 16:36 36.024360 -115.287979 95 10166ft 270kts
02-Sep-20 16:37 36.017557 -115.195686 94 9049ft 258kts
02-Sep-20 16:38 36.011792 -115.110646 94 8295ft 232kts
02-Sep-20 16:39 36.007432 -115.041697 93 8012ft 176kts
02-Sep-20 16:40 36.003464 -114.973999 93 8044ft 234kts
02-Sep-20 16:41 36.023432 -114.905394 14 7697ft 230kts
02-Sep-20 16:42 36.066531 -114.950073 296 6088ft 219kts
02-Sep-20 16:43 36.073820 -115.021052 270 4265ft 203kts
02-Sep-20 16:44 36.073912 -115.087358 277 2877ft 182kts
02-Sep-20 16:45 36.076443 -115.138106 270 2187ft 53kts
02-Sep-20 16:46 36.077570 -115.146582 349 2187ft 0kts
02-Sep-20 16:47 36.077776 -115.146757 320 2187ft 7kts
02-Sep-20 16:48 36.079769 -115.151135 357 2187ft 19kts
02-Sep-20 16:49 36.082589 -115.152176 334 2187ft 0kts

Navigation Log

Ident Type
Flight plan parsing failed, navigation log unavailable